Time;durP1;ratioP1;P1;durP2;ratioP2;P2;SDS_P1;SDS_P2;PMS_P1;PMS_P2;Temp;Humidity;BMP_temperature;BMP_pressure;BME280_temperature;BME280_humidity;BME280_pressure;Samples;Min_cycle;Max_cycle;Signal;HPM_P1;HPM_P2
2023/01/28 00:00:19;;;;;;;;;;;;;;;;;;4422574;32;20467;-77
2023/01/28 00:02:46;;;;;;;12.93;9.50;;;;;;;;;;4420329;32;19937;-76
2023/01/28 00:05:11;;;;;;;14.87;10.38;;;;;;;;;;4422155;32;20060;-76
2023/01/28 00:07:37;;;;;;;;;;;;;;;;;;4420405;32;20034;-76
2023/01/28 00:10:02;;;;;;;12.75;9.50;;;;;;;;;;4422370;32;19969;-76
2023/01/28 00:12:28;;;;;;;;;;;;;;;;;;4420483;32;20030;-76
2023/01/28 00:14:53;;;;;;;14.35;9.38;;;;;;;;;;4421005;32;19937;-76
2023/01/28 00:17:18;;;;;;;;;;;;;;;;;;4423047;32;20313;-75
2023/01/28 00:19:44;;;;;;;12.00;8.90;;;;;;;;;;4422777;32;19952;-76
2023/01/28 00:22:09;;;;;;;;;;;;;;;;;;4422239;32;20141;-76
2023/01/28 00:24:34;;;;;;;15.02;9.88;;;;;;;;;;4422474;32;19937;-75
2023/01/28 00:26:59;;;;;;;;;;;;;;;;;;4421150;32;20113;-76
2023/01/28 00:29:24;;;;;;;12.62;9.24;;;;;;;;;;4420784;32;19941;-76
2023/01/28 00:31:50;;;;;;;;;;;;;;;;;;4423321;32;20026;-77
2023/01/28 00:34:15;;;;;;;12.20;8.98;;;;;;;;;;4420258;32;19988;-76
2023/01/28 00:36:41;;;;;;;;;;;;;;;;;;4421660;32;20063;-77
2023/01/28 00:39:06;;;;;;;13.23;9.50;;;;;;;;;;4420991;32;19960;-76
2023/01/28 00:41:31;;;;;;;;;;;;;;;;;;4420374;32;20483;-76
2023/01/28 00:43:57;;;;;;;12.43;9.18;;;;;;;;;;4420134;32;19951;-75
2023/01/28 00:46:22;;;;;;;;;;;;;;;;;;4421472;32;20427;-75
2023/01/28 00:48:47;;;;;;;13.70;9.13;;;;;;;;;;4421092;32;19933;-75
2023/01/28 00:51:14;;;;;;;17.25;9.90;;;;;;;;;;4423047;32;20052;-75
2023/01/28 00:53:40;;;;;;;15.45;10.88;;;;;;;;;;4444647;32;20037;-77
2023/01/28 00:56:05;;;;;;;;;;;;;;;;;;4452114;32;20033;-76
2023/01/28 00:58:30;;;;;;;14.40;9.62;;;;;;;;;;4452954;32;19992;-76
2023/01/28 01:00:55;;;;;;;;;;;;;;;;;;4457438;32;20033;-75
2023/01/28 01:03:21;;;;;;;17.87;10.82;;;;;;;;;;4461419;32;19936;-75
2023/01/28 01:05:46;;;;;;;;;;;;;;;;;;4455685;32;20139;-75
2023/01/28 01:08:11;;;;;;;17.25;10.07;;;;;;;;;;4453048;32;20331;-75
2023/01/28 01:10:36;;;;;;;;;;;;;;;;;;4454838;32;20132;-77
2023/01/28 01:13:02;;;;;;;14.43;10.70;;;;;;;;;;4452648;32;19940;-77
2023/01/28 01:15:27;;;;;;;;;;;;;;;;;;4453613;32;20124;-76
2023/01/28 01:17:52;;;;;;;13.18;10.38;;;;;;;;;;4453961;32;19976;-77
2023/01/28 01:20:17;;;;;;;;;;;;;;;;;;4454500;32;20017;-75
2023/01/28 01:22:42;;;;;;;14.86;10.50;;;;;;;;;;4452485;32;19940;-76
2023/01/28 01:25:08;;;;;;;;;;;;;;;;;;4454908;32;20029;-75
2023/01/28 01:27:34;;;;;;;13.68;9.52;;;;;;;;;;4453098;32;20035;-75
2023/01/28 01:30:00;;;;;;;14.90;10.15;;;;;;;;;;4443586;32;20166;-76
2023/01/28 01:32:25;;;;;;;;;;;;;;;;;;4423495;32;20029;-76
2023/01/28 01:34:50;;;;;;;13.95;10.05;;;;;;;;;;4423233;32;19956;-76
2023/01/28 01:37:15;;;;;;;;;;;;;;;;;;4436558;32;20121;-76
2023/01/28 01:39:40;;;;;;;15.35;9.20;;;;;;;;;;4435877;32;19937;-76
2023/01/28 01:42:06;;;;;;;;;;;;;;;;;;4438103;32;20515;-76
2023/01/28 01:44:50;;;;;;;15.18;10.68;;;;;;;;;;4422078;32;19948;-75
2023/01/28 01:47:16;;;;;;;16.33;10.98;;;;;;;;;;4435837;32;20366;-75
2023/01/28 01:49:41;;;;;;;;;;;;;;;;;;4421842;32;20029;-76
2023/01/28 01:52:09;;;;;;;13.80;10.10;;;;;;;;;;4435730;32;20011;-75
2023/01/28 01:54:35;;;;;;;14.52;10.25;;;;;;;;;;4439237;32;20137;-75
2023/01/28 01:57:01;;;;;;;13.30;11.35;;;;;;;;;;4442715;32;20067;-76
2023/01/28 01:59:26;;;;;;;;;;;;;;;;;;4440545;32;20411;-76
2023/01/28 02:01:52;;;;;;;14.43;10.18;;;;;;;;;;4444083;32;19964;-75
2023/01/28 02:04:17;;;;;;;;;;;;;;;;;;4447664;32;20155;-75
2023/01/28 02:06:43;;;;;;;16.35;11.07;;;;;;;;;;4451755;32;19992;-75
2023/01/28 02:09:08;;;;;;;;;;;;;;;;;;4452496;32;20112;-76
2023/01/28 02:11:34;;;;;;;14.68;10.95;;;;;;;;;;4436886;32;19952;-76
2023/01/28 02:13:59;;;;;;;;;;;;;;;;;;4451665;32;20121;-76
2023/01/28 02:16:24;;;;;;;15.82;10.68;;;;;;;;;;4451664;32;19932;-76
2023/01/28 02:18:49;;;;;;;;;;;;;;;;;;4438779;32;20124;-76
2023/01/28 02:21:20;;;;;;;16.92;11.46;;;;;;;;;;4455004;32;19936;-76
2023/01/28 02:24:04;;;;;;;14.85;11.60;;;;;;;;;;4454446;32;20066;-76
2023/01/28 02:26:53;;;;;;;18.45;12.00;;;;;;;;;;4457707;32;20078;-76
2023/01/28 02:29:47;;;;;;;17.20;10.65;;;;;;;;;;4418405;32;20055;-76
2023/01/28 02:32:19;;;;;;;15.10;11.43;;;;;;;;;;4422763;32;20176;-75
2023/01/28 02:34:46;;;;;;;16.50;11.63;;;;;;;;;;4439754;32;20026;-75
2023/01/28 02:37:14;;;;;;;16.70;11.50;;;;;;;;;;4439170;32;20086;-76
2023/01/28 02:39:41;;;;;;;15.38;11.48;;;;;;;;;;4454830;32;20058;-76
2023/01/28 02:42:09;;;;;;;16.83;11.65;;;;;;;;;;4454728;32;20048;-75
2023/01/28 02:44:34;;;;;;;17.08;11.40;;;;;;;;;;4440131;32;20029;-76
2023/01/28 02:49:48;;;;;;;15.40;10.95;;;;;;;;;;4453544;32;19975;-76
2023/01/28 02:55:26;;;;;;;17.73;12.18;;;;;;;;;;4454026;32;20039;-76
2023/01/28 02:58:05;;;;;;;16.73;12.25;;;;;;;;;;4453786;32;20056;-75
2023/01/28 03:00:42;;;;;;;15.23;11.48;;;;;;;;;;4439793;32;20022;-75
2023/01/28 03:03:14;;;;;;;14.40;11.23;;;;;;;;;;4439912;32;20036;-77
2023/01/28 03:06:02;;;;;;;14.52;10.75;;;;;;;;;;4454563;32;20044;-75
2023/01/28 03:38:41;;;;;;;10.60;7.03;;;;;;;;;;4451433;32;20035;-76
2023/01/28 03:41:08;;;;;;;8.38;6.47;;;;;;;;;;4452734;32;20027;-74
2023/01/28 03:43:34;;;;;;;10.85;7.03;;;;;;;;;;4453918;32;20051;-76
2023/01/28 03:45:59;;;;;;;;;;;;;;;;;;4453367;32;20025;-76
2023/01/28 03:48:25;;;;;;;6.97;5.72;;;;;;;;;;4455467;32;19937;-76
2023/01/28 03:50:51;;;;;;;8.55;6.43;;;;;;;;;;4442105;32;20146;-75
2023/01/28 03:53:16;;;;;;;;;;;;;;;;;;4459796;32;20042;-75
2023/01/28 03:55:41;;;;;;;10.93;6.53;;;;;;;;;;4441689;32;19940;-75
2023/01/28 03:58:06;;;;;;;;;;;;;;;;;;4442517;32;20354;-75
2023/01/28 04:00:32;;;;;;;11.15;7.43;;;;;;;;;;4441105;32;19956;-75
2023/01/28 04:02:57;;;;;;;;;;;;;;;;;;4455029;32;20418;-75
2023/01/28 04:05:22;;;;;;;10.88;7.80;;;;;;;;;;4441623;32;20004;-75
2023/01/28 04:07:51;;;;;;;;;;;;;;;;;;4454354;32;20128;-75
2023/01/28 04:10:17;;;;;;;10.27;6.00;;;;;;;;;;4438867;32;19933;-76
2023/01/28 04:12:42;;;;;;;;;;;;;;;;;;4453411;32;20118;-76
2023/01/28 04:15:14;;;;;;;5.72;4.62;;;;;;;;;;4452401;32;19956;-76
2023/01/28 04:17:46;;;;;;;7.82;5.45;;;;;;;;;;4440004;32;20102;-76
2023/01/28 04:20:12;;;;;;;7.37;5.45;;;;;;;;;;4453206;32;20021;-76
2023/01/28 04:22:37;;;;;;;;;;;;;;;;;;4439079;32;20368;-76
2023/01/28 04:25:02;;;;;;;7.32;5.57;;;;;;;;;;4453443;32;19936;-77
2023/01/28 04:27:27;;;;;;;;;;;;;;;;;;4438686;32;20120;-75
2023/01/28 04:29:52;;;;;;;6.07;5.25;;;;;;;;;;4454253;32;19998;-76
2023/01/28 04:32:18;;;;;;;9.35;5.32;;;;;;;;;;4438402;32;20037;-77
2023/01/28 04:34:43;;;;;;;;;;;;;;;;;;4453047;32;20021;-77
2023/01/28 04:37:08;;;;;;;11.02;5.82;;;;;;;;;;4446130;32;19982;-75
2023/01/28 04:39:33;;;;;;;;;;;;;;;;;;4421947;32;20169;-76
2023/01/28 04:41:58;;;;;;;7.43;5.45;;;;;;;;;;4424127;32;19940;-76
2023/01/28 04:44:23;;;;;;;;;;;;;;;;;;4422817;32;20470;-76
2023/01/28 04:46:49;;;;;;;7.05;4.78;;;;;;;;;;4436941;32;19951;-77
2023/01/28 04:49:14;;;;;;;;;;;;;;;;;;4453118;32;20120;-76
2023/01/28 04:51:39;;;;;;;7.65;5.57;;;;;;;;;;4451963;32;19969;-76
2023/01/28 04:54:04;;;;;;;;;;;;;;;;;;4451396;32;20159;-76
2023/01/28 04:56:29;;;;;;;13.70;5.68;;;;;;;;;;4451632;32;19941;-75
2023/01/28 04:58:54;;;;;;;;;;;;;;;;;;4453126;32;20323;-75
2023/01/28 05:01:19;;;;;;;7.90;4.80;;;;;;;;;;4451690;32;19951;-76
2023/01/28 05:03:45;;;;;;;;;;;;;;;;;;4452885;32;20120;-75
2023/01/28 05:06:10;;;;;;;7.80;5.70;;;;;;;;;;4454691;32;19936;-74
2023/01/28 05:08:35;;;;;;;6.55;4.82;;;;;;;;;;4454196;32;20028;-75
2023/01/28 05:11:00;;;;;;;;;;;;;;;;;;4453701;32;20047;-76
2023/01/28 05:13:25;;;;;;;6.87;5.30;;;;;;;;;;4439576;32;19950;-75
2023/01/28 05:15:51;;;;;;;;;;;;;;;;;;4458240;32;20120;-75
2023/01/28 05:18:16;;;;;;;8.70;5.68;;;;;;;;;;4456732;32;20332;-75
2023/01/28 05:20:41;;;;;;;;;;;;;;;;;;4452142;32;20021;-75
2023/01/28 05:23:06;;;;;;;7.78;4.95;;;;;;;;;;4439052;32;19995;-75
2023/01/28 05:25:31;;;;;;;;;;;;;;;;;;4447887;32;20087;-75
2023/01/28 05:27:57;;;;;;;8.23;5.78;;;;;;;;;;4435663;32;20340;-75
2023/01/28 05:30:22;;;;;;;;;;;;;;;;;;4437322;32;20157;-75
2023/01/28 05:32:47;;;;;;;9.32;5.50;;;;;;;;;;4435085;32;19937;-75
2023/01/28 05:35:12;;;;;;;;;;;;;;;;;;4453514;32;20116;-76
2023/01/28 05:37:37;;;;;;;14.40;6.00;;;;;;;;;;4450557;32;19983;-75
2023/01/28 05:40:03;;;;;;;9.18;5.43;;;;;;;;;;4451128;32;20106;-75
2023/01/28 05:42:28;;;;;;;;;;;;;;;;;;4452759;32;20038;-75
2023/01/28 05:44:53;;;;;;;7.00;5.78;;;;;;;;;;4452536;32;19986;-75
2023/01/28 05:47:18;;;;;;;;;;;;;;;;;;4437542;32;20165;-76
2023/01/28 05:49:45;;;;;;;10.88;5.37;;;;;;;;;;4437871;32;20311;-75
2023/01/28 05:52:10;;;;;;;11.25;5.57;;;;;;;;;;4450760;32;20259;-75
2023/01/28 05:54:35;;;;;;;;;;;;;;;;;;4455846;32;20022;-76
2023/01/28 05:57:00;;;;;;;7.78;5.12;;;;;;;;;;4455866;32;19985;-76
2023/01/28 05:59:25;;;;;;;;;;;;;;;;;;4455985;32;20120;-76
2023/01/28 06:01:51;;;;;;;26.45;7.82;;;;;;;;;;4454443;32;19951;-76
2023/01/28 06:04:19;;;;;;;;;;;;;;;;;;4441010;32;20120;-76
2023/01/28 06:06:44;;;;;;;6.55;5.45;;;;;;;;;;4454334;32;19936;-75
2023/01/28 06:09:09;;;;;;;;;;;;;;;;;;4439651;32;20063;-75
2023/01/28 06:11:35;;;;;;;6.32;4.82;;;;;;;;;;4453987;32;20230;-76
2023/01/28 06:14:00;;;;;;;;;;;;;;;;;;4454071;32;20140;-75
2023/01/28 06:16:25;;;;;;;7.28;5.57;;;;;;;;;;4453756;32;19967;-76
2023/01/28 06:18:50;;;;;;;;;;;;;;;;;;4453210;32;20199;-75
2023/01/28 06:21:15;;;;;;;8.30;5.50;;;;;;;;;;4454922;32;19991;-75
2023/01/28 06:23:40;;;;;;;7.55;5.47;;;;;;;;;;4454711;32;20055;-75
2023/01/28 06:26:05;;;;;;;;;;;;;;;;;;4448675;32;20025;-75
2023/01/28 06:28:31;;;;;;;7.90;5.95;;;;;;;;;;4438508;32;19945;-76
2023/01/28 06:30:56;;;;;;;;;;;;;;;;;;4448648;32;20184;-76
2023/01/28 06:33:21;;;;;;;9.04;5.78;;;;;;;;;;4452937;32;19973;-75
2023/01/28 06:35:46;;;;;;;;;;;;;;;;;;4435227;32;20092;-76
2023/01/28 06:38:12;;;;;;;7.50;5.74;;;;;;;;;;4453472;32;19988;-74
2023/01/28 06:40:37;;;;;;;;;;;;;;;;;;4455502;32;20021;-73
2023/01/28 06:43:02;;;;;;;10.85;5.93;;;;;;;;;;4455214;32;19969;-72
2023/01/28 06:45:27;;;;;;;;;;;;;;;;;;4448355;32;20585;-72
2023/01/28 06:47:52;;;;;;;9.05;6.70;;;;;;;;;;4454859;32;19945;-73
2023/01/28 06:50:18;;;;;;;;;;;;;;;;;;4454792;32;20658;-72
2023/01/28 06:52:43;;;;;;;19.30;6.30;;;;;;;;;;4450894;32;19972;-73
2023/01/28 06:55:08;;;;;;;;;;;;;;;;;;4439202;32;20163;-73
2023/01/28 06:57:33;;;;;;;8.52;5.87;;;;;;;;;;4439329;32;19987;-73
2023/01/28 06:59:58;;;;;;;;;;;;;;;;;;4437865;32;20136;-73
2023/01/28 07:02:23;;;;;;;10.58;6.12;;;;;;;;;;4437767;32;20374;-73
2023/01/28 07:04:49;;;;;;;;;;;;;;;;;;4422799;32;20055;-73
2023/01/28 07:07:14;;;;;;;9.30;6.18;;;;;;;;;;4423525;32;20239;-73
2023/01/28 07:09:39;;;;;;;15.05;7.03;;;;;;;;;;4438594;32;20052;-73
2023/01/28 07:12:04;;;;;;;;;;;;;;;;;;4438291;32;20052;-72
2023/01/28 07:14:30;;;;;;;11.63;6.57;;;;;;;;;;4423648;32;19947;-72
2023/01/28 07:16:55;;;;;;;;;;;;;;;;;;4437662;32;20021;-73
2023/01/28 07:19:20;;;;;;;9.43;6.85;;;;;;;;;;4445423;32;19966;-73
2023/01/28 07:21:45;;;;;;;;;;;;;;;;;;4453155;32;20147;-73
2023/01/28 07:24:11;;;;;;;15.10;6.40;;;;;;;;;;4447299;32;20332;-73
2023/01/28 07:26:36;;;;;;;;;;;;;;;;;;4450711;32;20141;-73
2023/01/28 07:29:01;;;;;;;15.48;6.12;;;;;;;;;;4450632;32;20011;-74
2023/01/28 07:31:26;;;;;;;10.68;7.78;;;;;;;;;;4452934;32;20108;-73
2023/01/28 07:33:51;;;;;;;;;;;;;;;;;;4451755;32;20092;-74
2023/01/28 07:36:16;;;;;;;9.32;6.07;;;;;;;;;;4451965;32;19944;-72
2023/01/28 07:38:42;;;;;;;;;;;;;;;;;;4450951;32;20529;-73
2023/01/28 07:41:07;;;;;;;14.30;6.68;;;;;;;;;;4438839;32;20016;-73
2023/01/28 07:43:32;;;;;;;;;;;;;;;;;;4450881;32;20159;-72
2023/01/28 07:46:01;;;;;;;12.36;6.54;;;;;;;;;;4424932;32;19991;-74
2023/01/28 07:48:26;;;;;;;8.98;6.43;;;;;;;;;;4433102;32;20376;-72
2023/01/28 07:50:51;;;;;;;;;;;;;;;;;;4435229;32;20056;-74
2023/01/28 07:53:17;;;;;;;15.84;7.84;;;;;;;;;;4419086;32;20354;-74
2023/01/28 07:55:42;;;;;;;;;;;;;;;;;;4423749;32;20022;-71
2023/01/28 07:58:09;;;;;;;21.87;7.25;;;;;;;;;;4425136;32;19984;-73
2023/01/28 08:00:35;;;;;;;16.40;8.45;;;;;;;;;;4438636;32;20248;-73
2023/01/28 08:03:00;;;;;;;;;;;;;;;;;;4436882;32;20073;-73
2023/01/28 08:05:30;;;;;;;14.32;8.13;;;;;;;;;;4436366;32;20247;-73
2023/01/28 08:07:56;;;;;;;22.05;8.77;;;;;;;;;;4436952;32;20044;-72
2023/01/28 08:10:21;;;;;;;;;;;;;;;;;;4438400;32;20022;-73
2023/01/28 08:12:50;;;;;;;12.80;7.82;;;;;;;;;;4436398;32;19955;-72
2023/01/28 08:15:15;;;;;;;12.85;7.25;;;;;;;;;;4436738;32;20173;-73
2023/01/28 08:17:41;;;;;;;;;;;;;;;;;;4437803;32;20025;-74
2023/01/28 08:20:06;;;;;;;27.85;8.85;;;;;;;;;;4451583;32;20040;-73
2023/01/28 08:22:31;;;;;;;;;;;;;;;;;;4449039;32;20132;-73
2023/01/28 08:24:56;;;;;;;22.72;9.00;;;;;;;;;;4439462;32;20365;-73
2023/01/28 08:27:22;;;;;;;;;;;;;;;;;;4452701;32;20017;-73
2023/01/28 08:29:47;;;;;;;11.48;7.62;;;;;;;;;;4452903;32;19981;-73
2023/01/28 08:32:13;;;;;;;11.88;7.50;;;;;;;;;;4451410;32;20087;-73
2023/01/28 08:34:38;;;;;;;;;;;;;;;;;;4451227;32;20029;-74
2023/01/28 08:37:04;;;;;;;17.65;8.13;;;;;;;;;;4441529;32;19955;-73
2023/01/28 08:39:30;;;;;;;14.43;8.50;;;;;;;;;;4452066;32;20140;-73
2023/01/28 08:41:55;;;;;;;;;;;;;;;;;;4452635;32;20021;-73
2023/01/28 08:44:20;;;;;;;30.98;9.45;;;;;;;;;;4451905;32;19940;-73
2023/01/28 08:46:45;;;;;;;;;;;;;;;;;;4453220;32;20123;-73
2023/01/28 08:49:11;;;;;;;15.70;10.50;;;;;;;;;;4451097;32;19980;-73
2023/01/28 08:51:36;;;;;;;;;;;;;;;;;;4452143;32;20604;-73
2023/01/28 08:54:01;;;;;;;17.26;9.12;;;;;;;;;;4436420;32;19936;-72
2023/01/28 08:56:26;;;;;;;;;;;;;;;;;;4437722;32;20367;-72
2023/01/28 08:58:51;;;;;;;13.65;7.50;;;;;;;;;;4451752;32;19936;-74
2023/01/28 09:01:16;;;;;;;;;;;;;;;;;;4451294;32;20199;-73
2023/01/28 09:03:42;;;;;;;11.85;8.15;;;;;;;;;;4451897;32;20245;-74
2023/01/28 09:06:07;;;;;;;;;;;;;;;;;;4451506;32;20143;-74
2023/01/28 09:08:32;;;;;;;13.93;9.60;;;;;;;;;;4450942;32;20321;-73
2023/01/28 09:10:57;;;;;;;;;;;;;;;;;;4444218;32;20151;-74
2023/01/28 09:13:23;;;;;;;20.85;10.20;;;;;;;;;;4435847;32;19937;-76
2023/01/28 09:15:48;;;;;;;;;;;;;;;;;;4436248;32;20173;-73
2023/01/28 09:18:13;;;;;;;13.30;8.96;;;;;;;;;;4437904;32;19948;-74
2023/01/28 09:20:38;;;;;;;;;;;;;;;;;;4452118;32;20033;-72
2023/01/28 09:23:04;;;;;;;19.42;10.73;;;;;;;;;;4450523;32;20248;-74
2023/01/28 09:25:29;;;;;;;;;;;;;;;;;;4451502;32;20048;-73
2023/01/28 09:27:54;;;;;;;24.60;10.02;;;;;;;;;;4451290;32;19947;-73
2023/01/28 09:30:19;;;;;;;;;;;;;;;;;;4451155;32;20514;-73
2023/01/28 09:32:48;;;;;;;19.73;9.68;;;;;;;;;;4451211;32;19933;-74
2023/01/28 09:35:14;;;;;;;12.82;8.13;;;;;;;;;;4451958;32;20094;-74
2023/01/28 09:37:39;;;;;;;;;;;;;;;;;;4453117;32;20425;-74
2023/01/28 09:40:04;;;;;;;16.42;8.20;;;;;;;;;;4451904;32;20314;-74
2023/01/28 09:42:29;;;;;;;;;;;;;;;;;;4436528;32;20128;-74
2023/01/28 09:45:01;;;;;;;13.73;8.60;;;;;;;;;;4451493;32;19982;-74
2023/01/28 09:47:32;;;;;;;18.15;8.63;;;;;;;;;;4451275;32;20047;-75
2023/01/28 09:49:59;;;;;;;21.08;9.10;;;;;;;;;;4449539;32;20037;-74
2023/01/28 09:52:25;;;;;;;14.70;8.63;;;;;;;;;;4436042;32;20124;-76
2023/01/28 09:55:04;;;;;;;15.70;8.25;;;;;;;;;;4450584;32;20108;-76
2023/01/28 09:57:38;;;;;;;20.52;9.02;;;;;;;;;;4436465;32;20414;-74
2023/01/28 10:00:21;;;;;;;15.82;8.82;;;;;;;;;;4452610;32;20084;-75
2023/01/28 10:02:56;;;;;;;11.98;8.73;;;;;;;;;;4438386;32;20026;-75
2023/01/28 10:05:40;;;;;;;15.75;7.90;;;;;;;;;;4435092;32;20022;-74
2023/01/28 10:08:25;;;;;;;11.12;8.20;;;;;;;;;;4444227;32;20036;-74
2023/01/28 10:10:54;;;;;;;13.07;8.02;;;;;;;;;;4448901;32;20126;-74
2023/01/28 10:13:20;;;;;;;22.27;8.68;;;;;;;;;;4451619;32;20095;-74
2023/01/28 10:15:45;;;;;;;17.02;8.40;;;;;;;;;;4450763;32;20032;-75
2023/01/28 10:18:10;;;;;;;;;;;;;;;;;;4450605;32;20033;-74
2023/01/28 10:20:39;;;;;;;14.75;7.45;;;;;;;;;;4450569;32;19936;-74
2023/01/28 10:23:07;;;;;;;19.35;8.02;;;;;;;;;;4451673;32;20037;-74
2023/01/28 10:25:33;;;;;;;14.65;7.47;;;;;;;;;;4450368;32;20063;-75
2023/01/28 10:28:00;;;;;;;14.50;7.60;;;;;;;;;;4451520;32;20040;-74
2023/01/28 10:30:27;;;;;;;11.77;7.07;;;;;;;;;;4450278;32;20033;-74
2023/01/28 10:32:55;;;;;;;19.23;8.00;;;;;;;;;;4436401;32;20074;-74
2023/01/28 10:35:20;;;;;;;11.07;7.78;;;;;;;;;;4450565;32;20025;-74
2023/01/28 10:37:45;;;;;;;;;;;;;;;;;;4450274;32;20052;-74
2023/01/28 10:40:15;;;;;;;22.55;7.87;;;;;;;;;;4437717;32;19945;-74
2023/01/28 10:42:40;;;;;;;17.20;8.32;;;;;;;;;;4453076;32;20147;-73
2023/01/28 10:45:05;;;;;;;;;;;;;;;;;;4454518;32;20371;-75
2023/01/28 10:47:34;;;;;;;14.68;7.15;;;;;;;;;;4453686;32;19983;-75
2023/01/28 10:50:00;;;;;;;15.27;7.20;;;;;;;;;;4452740;32;20129;-74
2023/01/28 10:52:25;;;;;;;;;;;;;;;;;;4453966;32;20073;-74
2023/01/28 10:55:03;;;;;;;32.97;7.68;;;;;;;;;;4452722;32;20011;-75
2023/01/28 10:57:31;;;;;;;15.63;6.95;;;;;;;;;;4452998;32;20514;-74
2023/01/28 10:59:57;;;;;;;10.23;6.60;;;;;;;;;;4452789;32;20033;-74
2023/01/28 11:02:22;;;;;;;;;;;;;;;;;;4452739;32;20029;-75
2023/01/28 11:04:47;;;;;;;6.60;4.65;;;;;;;;;;4452301;32;19947;-74
2023/01/28 11:07:12;;;;;;;;;;;;;;;;;;4439719;32;20632;-75
2023/01/28 11:09:37;;;;;;;19.42;6.15;;;;;;;;;;4450923;32;20000;-75
2023/01/28 11:12:12;;;;;;;13.48;5.43;;;;;;;;;;4451708;32;20073;-74
2023/01/28 11:14:42;;;;;;;24.12;5.75;;;;;;;;;;4451733;32;20059;-75
2023/01/28 11:17:15;;;;;;;13.60;5.93;;;;;;;;;;4452330;32;20329;-75
2023/01/28 11:19:40;;;;;;;19.77;7.05;;;;;;;;;;4452239;32;20453;-75
2023/01/28 11:22:05;;;;;;;;;;;;;;;;;;4454012;32;20025;-74
2023/01/28 11:24:31;;;;;;;9.94;6.18;;;;;;;;;;4437831;32;19947;-75
2023/01/28 11:26:58;;;;;;;16.35;6.28;;;;;;;;;;4452625;32;20462;-75
2023/01/28 11:29:23;;;;;;;;;;;;;;;;;;4452157;32;20060;-74
2023/01/28 11:31:48;;;;;;;13.57;6.85;;;;;;;;;;4452008;32;19973;-74
2023/01/28 11:34:13;;;;;;;;;;;;;;;;;;4452657;32;20025;-75
2023/01/28 11:36:48;;;;;;;10.07;5.85;;;;;;;;;;4452974;32;19943;-75
2023/01/28 11:39:24;;;;;;;7.50;6.03;;;;;;;;;;4453273;32;20608;-76
2023/01/28 11:41:50;;;;;;;;;;;;;;;;;;4452481;32;20049;-75
2023/01/28 11:44:18;;;;;;;19.70;6.32;;;;;;;;;;4437707;32;19936;-74
2023/01/28 11:47:01;;;;;;;18.23;6.87;;;;;;;;;;4452960;32;20174;-76
2023/01/28 11:49:33;;;;;;;14.50;6.80;;;;;;;;;;4453174;32;20026;-75
2023/01/28 11:52:17;;;;;;;13.48;6.10;;;;;;;;;;4438369;32;20052;-75
2023/01/28 11:54:51;;;;;;;14.70;6.00;;;;;;;;;;4438311;32;20319;-75
2023/01/28 11:57:26;;;;;;;10.85;5.53;;;;;;;;;;4453044;32;20406;-75
2023/01/28 12:00:10;;;;;;;9.00;6.60;;;;;;;;;;4451435;32;20415;-73
2023/01/28 12:02:50;;;;;;;9.20;5.60;;;;;;;;;;4436559;32;20025;-74
2023/01/28 12:05:24;;;;;;;15.18;6.53;;;;;;;;;;4442851;32;20116;-75
2023/01/28 12:07:59;;;;;;;10.10;5.65;;;;;;;;;;4437790;32;20090;-74
2023/01/28 12:10:24;;;;;;;9.70;5.28;;;;;;;;;;4423552;32;20454;-75
2023/01/28 12:12:49;;;;;;;;;;;;;;;;;;4423596;32;20082;-76
2023/01/28 12:15:36;;;;;;;11.20;6.07;;;;;;;;;;4422575;32;20287;-74
2023/01/28 12:18:21;;;;;;;10.00;5.87;;;;;;;;;;4437622;32;20544;-76
2023/01/28 12:20:58;;;;;;;13.50;6.50;;;;;;;;;;4422442;32;20025;-74
2023/01/28 12:23:23;;;;;;;;;;;;;;;;;;4438696;32;20052;-75
2023/01/28 12:25:48;;;;;;;9.80;4.05;;;;;;;;;;4436563;32;19941;-75
2023/01/28 12:28:13;;;;;;;;;;;;;;;;;;4422227;32;20033;-73
2023/01/28 12:30:50;;;;;;;11.68;4.30;;;;;;;;;;4453136;32;19947;-74
2023/01/28 12:33:21;;;;;;;9.77;4.53;;;;;;;;;;4453300;32;20165;-74
2023/01/28 12:35:57;;;;;;;7.87;5.60;;;;;;;;;;4451930;32;20297;-74
2023/01/28 12:38:37;;;;;;;15.15;6.53;;;;;;;;;;4451750;32;20071;-75
2023/01/28 12:41:10;;;;;;;10.15;6.10;;;;;;;;;;4437580;32;20065;-73
2023/01/28 12:43:41;;;;;;;22.75;5.93;;;;;;;;;;4435724;32;20097;-75
2023/01/28 12:46:10;;;;;;;19.50;6.80;;;;;;;;;;4423321;32;20034;-74
2023/01/28 12:48:48;;;;;;;14.27;6.40;;;;;;;;;;4435401;32;20077;-73
2023/01/28 12:51:15;;;;;;;21.75;6.75;;;;;;;;;;4435925;32;20115;-71
2023/01/28 12:53:44;;;;;;;11.57;6.93;;;;;;;;;;4427633;32;20083;-69
2023/01/28 12:56:16;;;;;;;8.20;6.70;;;;;;;;;;4437258;32;20068;-71
2023/01/28 12:58:54;;;;;;;10.45;5.80;;;;;;;;;;4438553;32;20051;-69
2023/01/28 13:01:23;;;;;;;10.88;7.00;;;;;;;;;;4452625;32;20075;-69
2023/01/28 13:03:52;;;;;;;9.43;6.10;;;;;;;;;;4451246;32;20040;-70
2023/01/28 13:06:23;;;;;;;12.13;6.95;;;;;;;;;;4449891;32;20072;-70
2023/01/28 13:08:49;;;;;;;15.25;6.62;;;;;;;;;;4440873;32;20045;-69
2023/01/28 13:11:17;;;;;;;14.63;6.12;;;;;;;;;;4431592;32;20060;-69
2023/01/28 13:13:44;;;;;;;9.07;6.78;;;;;;;;;;4442539;32;20108;-70
2023/01/28 13:16:10;;;;;;;20.20;7.25;;;;;;;;;;4441112;32;20113;-69
2023/01/28 13:18:35;;;;;;;;;;;;;;;;;;4427075;32;20396;-69
2023/01/28 13:21:01;;;;;;;8.25;5.62;;;;;;;;;;4435532;32;20330;-69
2023/01/28 13:23:29;;;;;;;12.98;6.22;;;;;;;;;;4436003;32;20045;-70
2023/01/28 13:25:55;;;;;;;8.40;5.53;;;;;;;;;;4436682;32;20125;-72
2023/01/28 13:28:20;;;;;;;;;;;;;;;;;;4434688;32;20439;-70
2023/01/28 13:30:48;;;;;;;9.82;5.22;;;;;;;;;;4451439;32;19944;-70
2023/01/28 13:33:27;;;;;;;7.82;5.78;;;;;;;;;;4452377;32;20056;-70
2023/01/28 13:35:53;;;;;;;13.32;5.87;;;;;;;;;;4453744;32;20075;-71
2023/01/28 13:38:18;;;;;;;;;;;;;;;;;;4453276;32;20032;-70
2023/01/28 13:40:52;;;;;;;11.02;5.57;;;;;;;;;;4440404;32;19987;-70
2023/01/28 13:43:26;;;;;;;8.15;5.90;;;;;;;;;;4420734;32;20178;-69
2023/01/28 13:45:58;;;;;;;13.02;6.25;;;;;;;;;;4436033;32;20033;-70
2023/01/28 13:48:23;;;;;;;8.15;6.12;;;;;;;;;;4435129;32;20048;-70
2023/01/28 13:50:48;;;;;;;;;;;;;;;;;;4436522;32;20022;-70
2023/01/28 13:53:23;;;;;;;7.32;5.72;;;;;;;;;;4420644;32;20358;-69
2023/01/28 13:55:49;;;;;;;14.65;5.97;;;;;;;;;;4436787;32;20124;-71
2023/01/28 13:58:27;;;;;;;9.52;6.25;;;;;;;;;;4422648;32;20084;-71
2023/01/28 14:00:55;;;;;;;10.95;5.93;;;;;;;;;;4451543;32;20029;-70
2023/01/28 14:03:35;;;;;;;25.10;6.60;;;;;;;;;;4446312;32;20026;-70
2023/01/28 14:06:22;;;;;;;19.23;7.65;;;;;;;;;;4436973;32;20033;-71
2023/01/28 14:08:53;;;;;;;17.58;7.03;;;;;;;;;;4447163;32;20022;-70
2023/01/28 14:11:29;;;;;;;8.00;5.80;;;;;;;;;;4450613;32;20028;-70
2023/01/28 14:14:13;;;;;;;11.60;5.68;;;;;;;;;;4450949;32;20053;-69
2023/01/28 14:16:57;;;;;;;8.32;5.68;;;;;;;;;;4438579;32;20482;-70
2023/01/28 14:19:26;;;;;;;7.80;5.95;;;;;;;;;;4455369;32;20133;-70
2023/01/28 14:21:52;;;;;;;9.07;5.70;;;;;;;;;;4455107;32;20070;-70
2023/01/28 14:24:17;;;;;;;;;;;;;;;;;;4441275;32;20013;-70
2023/01/28 14:27:20;;;;;;;10.07;6.75;;;;;;;;;;4445014;32;20340;-71
2023/01/28 14:29:52;;;;;;;13.40;6.03;;;;;;;;;;4378543;32;20109;-70
2023/01/28 14:32:20;;;;;;;11.55;6.15;;;;;;;;;;4389042;32;20054;-70
2023/01/28 14:34:45;;;;;;;10.73;5.78;;;;;;;;;;4421503;32;20153;-69
2023/01/28 14:37:11;;;;;;;;;;;;;;;;;;4451231;32;20392;-70
2023/01/28 14:39:45;;;;;;;9.30;5.97;;;;;;;;;;4436720;32;20293;-70
2023/01/28 14:42:31;;;;;;;7.25;5.47;;;;;;;;;;4438798;32;20358;-69
2023/01/28 14:45:05;;;;;;;12.77;6.62;;;;;;;;;;4424229;32;20034;-70
2023/01/28 14:47:35;;;;;;;12.18;6.43;;;;;;;;;;4422662;32;20058;-70
2023/01/28 14:50:03;;;;;;;12.65;6.00;;;;;;;;;;4438966;32;20421;-70
2023/01/28 14:52:49;;;;;;;16.92;6.40;;;;;;;;;;4438256;32;20061;-70
2023/01/28 14:55:24;;;;;;;12.85;6.28;;;;;;;;;;4437454;32;20140;-71
2023/01/28 14:57:52;;;;;;;29.40;8.25;;;;;;;;;;4436929;32;20052;-73
2023/01/28 15:00:20;;;;;;;16.60;6.45;;;;;;;;;;4453176;32;20100;-70
2023/01/28 15:02:45;;;;;;;10.82;6.10;;;;;;;;;;4436482;32;20120;-70
2023/01/28 15:05:10;;;;;;;;;;;;;;;;;;4445732;32;20048;-70
2023/01/28 15:07:35;;;;;;;8.30;6.03;;;;;;;;;;4438569;32;19932;-70
2023/01/28 15:10:03;;;;;;;9.98;5.97;;;;;;;;;;4438445;32;20025;-69
2023/01/28 15:12:31;;;;;;;9.00;6.43;;;;;;;;;;4425172;32;20135;-69
2023/01/28 15:14:58;;;;;;;9.20;5.35;;;;;;;;;;4440488;32;20343;-70
2023/01/28 15:17:25;;;;;;;15.15;6.15;;;;;;;;;;4451911;32;20073;-70
2023/01/28 15:19:51;;;;;;;10.20;6.55;;;;;;;;;;4438289;32;20028;-70
2023/01/28 15:22:19;;;;;;;10.35;6.75;;;;;;;;;;4446644;32;20026;-70
2023/01/28 15:24:44;;;;;;;10.93;6.40;;;;;;;;;;4434103;32;20063;-70
2023/01/28 15:27:10;;;;;;;;;;;;;;;;;;4451977;32;20026;-69
2023/01/28 15:29:36;;;;;;;14.75;6.62;;;;;;;;;;4452822;32;20294;-70
2023/01/28 15:32:05;;;;;;;15.82;7.30;;;;;;;;;;4450816;32;20123;-70
2023/01/28 15:34:30;;;;;;;13.73;6.78;;;;;;;;;;4452234;32;20017;-70
2023/01/28 15:36:56;;;;;;;;;;;;;;;;;;4452556;32;20108;-69
2023/01/28 15:39:22;;;;;;;13.62;7.28;;;;;;;;;;4453539;32;19941;-68
2023/01/28 15:41:49;;;;;;;15.23;7.05;;;;;;;;;;4439836;32;20029;-71
2023/01/28 15:44:16;;;;;;;18.77;8.13;;;;;;;;;;4437742;32;20025;-69
2023/01/28 15:46:41;;;;;;;17.33;8.50;;;;;;;;;;4452873;32;20103;-69